sensor_id;sensor_type;location;lat;lon;timestamp;pressure;altitude;pressure_sealevel;temperature
66372;BMP180;53168;51.146;17.120;2023-07-20T00:00:00;99639.40;;;16.30
66372;BMP180;53168;51.146;17.120;2023-07-20T00:02:31;99636.80;;;16.30
66372;BMP180;53168;51.146;17.120;2023-07-20T00:05:00;99623.60;;;16.30
66372;BMP180;53168;51.146;17.120;2023-07-20T00:07:30;99635.20;;;16.24
66372;BMP180;53168;51.146;17.120;2023-07-20T00:10:00;99640.40;;;16.20
66372;BMP180;53168;51.146;17.120;2023-07-20T00:12:30;99637.40;;;16.20
66372;BMP180;53168;51.146;17.120;2023-07-20T00:15:00;99641.20;;;16.20
66372;BMP180;53168;51.146;17.120;2023-07-20T00:17:29;99643.00;;;16.24
66372;BMP180;53168;51.146;17.120;2023-07-20T00:20:00;99650.40;;;16.30
66372;BMP180;53168;51.146;17.120;2023-07-20T00:22:32;99656.00;;;16.20
66372;BMP180;53168;51.146;17.120;2023-07-20T00:25:03;99661.80;;;16.20
66372;BMP180;53168;51.146;17.120;2023-07-20T00:27:34;99667.60;;;16.20
66372;BMP180;53168;51.146;17.120;2023-07-20T00:30:05;99678.00;;;16.20
66372;BMP180;53168;51.146;17.120;2023-07-20T00:32:35;99671.20;;;16.20
66372;BMP180;53168;51.146;17.120;2023-07-20T00:35:07;99669.40;;;16.16
66372;BMP180;53168;51.146;17.120;2023-07-20T00:37:37;99668.60;;;16.12
66372;BMP180;53168;51.146;17.120;2023-07-20T00:40:09;99676.60;;;16.20
66372;BMP180;53168;51.146;17.120;2023-07-20T00:42:38;99678.60;;;16.20
66372;BMP180;53168;51.146;17.120;2023-07-20T00:45:11;99678.60;;;16.20
66372;BMP180;53168;51.146;17.120;2023-07-20T00:47:42;99675.80;;;16.30
66372;BMP180;53168;51.146;17.120;2023-07-20T00:50:12;99677.20;;;16.30
66372;BMP180;53168;51.146;17.120;2023-07-20T00:52:44;99673.40;;;16.40
66372;BMP180;53168;51.146;17.120;2023-07-20T00:55:14;99672.40;;;16.36
66372;BMP180;53168;51.146;17.120;2023-07-20T00:57:45;99660.20;;;16.36
66372;BMP180;53168;51.146;17.120;2023-07-20T01:00:17;99637.80;;;16.40
66372;BMP180;53168;51.146;17.120;2023-07-20T01:03:16;99631.60;;;16.50
66372;BMP180;53168;51.146;17.120;2023-07-20T01:05:57;99637.80;;;16.44
66372;BMP180;53168;51.146;17.120;2023-07-20T01:08:43;99640.80;;;16.38
66372;BMP180;53168;51.146;17.120;2023-07-20T01:11:24;99645.20;;;16.30
66372;BMP180;53168;51.146;17.120;2023-07-20T01:14:00;99649.40;;;16.30
66372;BMP180;53168;51.146;17.120;2023-07-20T01:16:29;99661.20;;;16.28
66372;BMP180;53168;51.146;17.120;2023-07-20T01:19:05;99660.20;;;16.20
66372;BMP180;53168;51.146;17.120;2023-07-20T01:22:03;99656.40;;;16.24
66372;BMP180;53168;51.146;17.120;2023-07-20T01:25:23;99648.00;;;16.20
66372;BMP180;53168;51.146;17.120;2023-07-20T01:28:34;99646.80;;;16.20
66372;BMP180;53168;51.146;17.120;2023-07-20T01:31:31;99648.20;;;16.30
66372;BMP180;53168;51.146;17.120;2023-07-20T01:34:04;99648.40;;;16.30
66372;BMP180;53168;51.146;17.120;2023-07-20T01:36:39;99649.20;;;16.30
66372;BMP180;53168;51.146;17.120;2023-07-20T01:39:11;99642.60;;;16.30
66372;BMP180;53168;51.146;17.120;2023-07-20T01:41:42;99637.00;;;16.22
66372;BMP180;53168;51.146;17.120;2023-07-20T01:44:20;99631.00;;;16.20
66372;BMP180;53168;51.146;17.120;2023-07-20T01:46:50;99631.20;;;16.10
66372;BMP180;53168;51.146;17.120;2023-07-20T01:49:19;99635.20;;;16.00
66372;BMP180;53168;51.146;17.120;2023-07-20T01:51:49;99640.00;;;16.00
66372;BMP180;53168;51.146;17.120;2023-07-20T01:54:19;99636.20;;;15.96
66372;BMP180;53168;51.146;17.120;2023-07-20T01:56:50;99636.40;;;15.90
66372;BMP180;53168;51.146;17.120;2023-07-20T01:59:20;99641.00;;;15.90
66372;BMP180;53168;51.146;17.120;2023-07-20T02:01:50;99638.60;;;15.90
66372;BMP180;53168;51.146;17.120;2023-07-20T02:04:20;99634.00;;;15.88
66372;BMP180;53168;51.146;17.120;2023-07-20T02:06:57;99631.80;;;15.80
66372;BMP180;53168;51.146;17.120;2023-07-20T02:09:27;99635.20;;;15.80
66372;BMP180;53168;51.146;17.120;2023-07-20T02:11:57;99639.00;;;15.80
66372;BMP180;53168;51.146;17.120;2023-07-20T02:14:27;99643.60;;;15.80
66372;BMP180;53168;51.146;17.120;2023-07-20T02:16:58;99641.00;;;15.80
66372;BMP180;53168;51.146;17.120;2023-07-20T02:19:31;99635.80;;;15.78
66372;BMP180;53168;51.146;17.120;2023-07-20T02:22:00;99637.60;;;15.70
66372;BMP180;53168;51.146;17.120;2023-07-20T02:24:30;99633.40;;;15.80
66372;BMP180;53168;51.146;17.120;2023-07-20T02:26:59;99640.40;;;15.80
66372;BMP180;53168;51.146;17.120;2023-07-20T02:29:29;99639.80;;;15.80
66372;BMP180;53168;51.146;17.120;2023-07-20T02:32:01;99642.20;;;15.80
66372;BMP180;53168;51.146;17.120;2023-07-20T02:34:31;99638.60;;;15.82
66372;BMP180;53168;51.146;17.120;2023-07-20T02:37:01;99634.40;;;15.80
66372;BMP180;53168;51.146;17.120;2023-07-20T02:39:31;99632.60;;;15.80
66372;BMP180;53168;51.146;17.120;2023-07-20T02:42:01;99638.20;;;15.80
66372;BMP180;53168;51.146;17.120;2023-07-20T02:44:31;99638.20;;;15.70
66372;BMP180;53168;51.146;17.120;2023-07-20T02:47:01;99636.20;;;15.70
66372;BMP180;53168;51.146;17.120;2023-07-20T02:49:31;99643.60;;;15.62
66372;BMP180;53168;51.146;17.120;2023-07-20T02:52:00;99647.40;;;15.60
66372;BMP180;53168;51.146;17.120;2023-07-20T02:54:30;99644.20;;;15.60
66372;BMP180;53168;51.146;17.120;2023-07-20T02:57:00;99643.20;;;15.60
66372;BMP180;53168;51.146;17.120;2023-07-20T02:59:30;99644.00;;;15.60
66372;BMP180;53168;51.146;17.120;2023-07-20T03:02:00;99641.60;;;15.60
66372;BMP180;53168;51.146;17.120;2023-07-20T03:04:30;99643.00;;;15.60
66372;BMP180;53168;51.146;17.120;2023-07-20T03:07:00;99644.00;;;15.60
66372;BMP180;53168;51.146;17.120;2023-07-20T03:09:29;99642.40;;;15.58
66372;BMP180;53168;51.146;17.120;2023-07-20T03:11:59;99641.80;;;15.50
66372;BMP180;53168;51.146;17.120;2023-07-20T03:14:28;99636.20;;;15.50
66372;BMP180;53168;51.146;17.120;2023-07-20T03:16:58;99638.00;;;15.60
66372;BMP180;53168;51.146;17.120;2023-07-20T03:19:28;99640.40;;;15.60
66372;BMP180;53168;51.146;17.120;2023-07-20T03:21:58;99647.20;;;15.60
66372;BMP180;53168;51.146;17.120;2023-07-20T03:24:28;99644.40;;;15.60
66372;BMP180;53168;51.146;17.120;2023-07-20T03:26:58;99643.60;;;15.54
66372;BMP180;53168;51.146;17.120;2023-07-20T03:29:31;99648.00;;;15.50
66372;BMP180;53168;51.146;17.120;2023-07-20T03:32:01;99640.60;;;15.50
66372;BMP180;53168;51.146;17.120;2023-07-20T03:34:31;99645.60;;;15.50
66372;BMP180;53168;51.146;17.120;2023-07-20T03:37:05;99645.00;;;15.50
66372;BMP180;53168;51.146;17.120;2023-07-20T03:39:35;99645.40;;;15.50
66372;BMP180;53168;51.146;17.120;2023-07-20T03:42:07;99643.60;;;15.50
66372;BMP180;53168;51.146;17.120;2023-07-20T03:44:45;99651.20;;;15.50
66372;BMP180;53168;51.146;17.120;2023-07-20T03:47:15;99648.60;;;15.50
66372;BMP180;53168;51.146;17.120;2023-07-20T03:49:46;99654.40;;;15.50
66372;BMP180;53168;51.146;17.120;2023-07-20T03:52:16;99650.40;;;15.54
66372;BMP180;53168;51.146;17.120;2023-07-20T03:54:46;99637.80;;;15.60
66372;BMP180;53168;51.146;17.120;2023-07-20T03:57:15;99639.00;;;15.60
66372;BMP180;53168;51.146;17.120;2023-07-20T03:59:47;99649.20;;;15.60
66372;BMP180;53168;51.146;17.120;2023-07-20T04:02:17;99651.20;;;15.60
66372;BMP180;53168;51.146;17.120;2023-07-20T04:04:47;99647.00;;;15.60
66372;BMP180;53168;51.146;17.120;2023-07-20T04:07:17;99639.40;;;15.68
66372;BMP180;53168;51.146;17.120;2023-07-20T04:09:47;99629.00;;;15.70
66372;BMP180;53168;51.146;17.120;2023-07-20T04:12:19;99640.20;;;15.80
66372;BMP180;53168;51.146;17.120;2023-07-20T04:14:48;99639.20;;;15.90
66372;BMP180;53168;51.146;17.120;2023-07-20T04:17:20;99634.20;;;16.00
66372;BMP180;53168;51.146;17.120;2023-07-20T04:19:50;99644.80;;;16.10
66372;BMP180;53168;51.146;17.120;2023-07-20T04:22:38;99643.40;;;16.30
66372;BMP180;53168;51.146;17.120;2023-07-20T04:25:10;99647.40;;;16.40
66372;BMP180;53168;51.146;17.120;2023-07-20T04:27:40;99657.80;;;16.60
66372;BMP180;53168;51.146;17.120;2023-07-20T04:30:13;99656.40;;;16.62
66372;BMP180;53168;51.146;17.120;2023-07-20T04:32:45;99663.60;;;16.70
66372;BMP180;53168;51.146;17.120;2023-07-20T04:35:46;99654.60;;;16.78
66372;BMP180;53168;51.146;17.120;2023-07-20T04:38:19;99665.40;;;16.90
66372;BMP180;53168;51.146;17.120;2023-07-20T04:41:00;99670.40;;;16.92
66372;BMP180;53168;51.146;17.120;2023-07-20T04:43:32;99665.60;;;17.04
66372;BMP180;53168;51.146;17.120;2023-07-20T04:46:03;99666.40;;;17.10
66372;BMP180;53168;51.146;17.120;2023-07-20T04:48:35;99670.20;;;17.20
66372;BMP180;53168;51.146;17.120;2023-07-20T04:51:05;99669.80;;;17.20
66372;BMP180;53168;51.146;17.120;2023-07-20T04:53:35;99682.20;;;17.20
66372;BMP180;53168;51.146;17.120;2023-07-20T04:56:05;99685.00;;;17.20
66372;BMP180;53168;51.146;17.120;2023-07-20T04:58:38;99685.20;;;17.20
66372;BMP180;53168;51.146;17.120;2023-07-20T05:01:11;99683.60;;;17.28
66372;BMP180;53168;51.146;17.120;2023-07-20T05:03:41;99680.00;;;17.40
66372;BMP180;53168;51.146;17.120;2023-07-20T05:06:12;99680.60;;;17.40
66372;BMP180;53168;51.146;17.120;2023-07-20T05:08:42;99683.00;;;17.48
66372;BMP180;53168;51.146;17.120;2023-07-20T05:11:12;99683.20;;;17.48
66372;BMP180;53168;51.146;17.120;2023-07-20T05:13:42;99693.00;;;17.50
66372;BMP180;53168;51.146;17.120;2023-07-20T05:16:14;99697.40;;;17.50
66372;BMP180;53168;51.146;17.120;2023-07-20T05:18:44;99698.60;;;17.58
66372;BMP180;53168;51.146;17.120;2023-07-20T05:21:15;99695.80;;;17.60
66372;BMP180;53168;51.146;17.120;2023-07-20T05:23:45;99699.60;;;17.66
66372;BMP180;53168;51.146;17.120;2023-07-20T05:26:16;99700.80;;;17.80
66372;BMP180;53168;51.146;17.120;2023-07-20T05:28:46;99705.80;;;17.90
66372;BMP180;53168;51.146;17.120;2023-07-20T05:31:15;99709.40;;;18.00
66372;BMP180;53168;51.146;17.120;2023-07-20T05:33:45;99714.40;;;18.10
66372;BMP180;53168;51.146;17.120;2023-07-20T05:36:18;99718.80;;;18.24
66372;BMP180;53168;51.146;17.120;2023-07-20T05:38:48;99725.40;;;18.28
66372;BMP180;53168;51.146;17.120;2023-07-20T05:41:18;99721.00;;;18.20
66372;BMP180;53168;51.146;17.120;2023-07-20T05:43:48;99721.80;;;18.16
66372;BMP180;53168;51.146;17.120;2023-07-20T05:46:17;99725.20;;;18.10
66372;BMP180;53168;51.146;17.120;2023-07-20T05:48:50;99718.80;;;18.00
66372;BMP180;53168;51.146;17.120;2023-07-20T05:51:20;99727.00;;;18.00
66372;BMP180;53168;51.146;17.120;2023-07-20T05:53:50;99723.20;;;18.00
66372;BMP180;53168;51.146;17.120;2023-07-20T05:56:20;99725.60;;;18.10
66372;BMP180;53168;51.146;17.120;2023-07-20T05:58:50;99722.80;;;18.10
66372;BMP180;53168;51.146;17.120;2023-07-20T06:01:20;99716.40;;;18.10
66372;BMP180;53168;51.146;17.120;2023-07-20T06:03:50;99718.60;;;18.10
66372;BMP180;53168;51.146;17.120;2023-07-20T06:06:20;99719.40;;;18.10
66372;BMP180;53168;51.146;17.120;2023-07-20T06:08:50;99720.40;;;18.00
66372;BMP180;53168;51.146;17.120;2023-07-20T06:11:20;99720.00;;;17.80
66372;BMP180;53168;51.146;17.120;2023-07-20T06:14:14;99719.00;;;17.80
66372;BMP180;53168;51.146;17.120;2023-07-20T06:16:45;99714.60;;;17.90
66372;BMP180;53168;51.146;17.120;2023-07-20T06:19:15;99725.80;;;18.10
66372;BMP180;53168;51.146;17.120;2023-07-20T06:21:46;99727.40;;;18.30
66372;BMP180;53168;51.146;17.120;2023-07-20T06:25:13;99729.00;;;18.52
66372;BMP180;53168;51.146;17.120;2023-07-20T06:34:12;99733.60;;;19.70
66372;BMP180;53168;51.146;17.120;2023-07-20T06:36:43;99734.60;;;19.80
66372;BMP180;53168;51.146;17.120;2023-07-20T06:39:14;99741.20;;;19.70
66372;BMP180;53168;51.146;17.120;2023-07-20T06:41:55;99742.00;;;19.50
66372;BMP180;53168;51.146;17.120;2023-07-20T07:39:37;99753.00;;;21.88
66372;BMP180;53168;51.146;17.120;2023-07-20T07:42:14;99745.00;;;21.80
66372;BMP180;53168;51.146;17.120;2023-07-20T07:45:16;99751.40;;;22.10
66372;BMP180;53168;51.146;17.120;2023-07-20T07:47:52;99755.20;;;22.10
66372;BMP180;53168;51.146;17.120;2023-07-20T07:50:33;99763.00;;;21.80
66372;BMP180;53168;51.146;17.120;2023-07-20T07:53:20;99755.40;;;21.40
66372;BMP180;53168;51.146;17.120;2023-07-20T07:56:01;99757.00;;;21.40
66372;BMP180;53168;51.146;17.120;2023-07-20T07:58:49;99754.40;;;21.74
66372;BMP180;53168;51.146;17.120;2023-07-20T08:01:34;99747.40;;;22.24
66372;BMP180;53168;51.146;17.120;2023-07-20T08:04:32;99749.20;;;22.40
66372;BMP180;53168;51.146;17.120;2023-07-20T08:07:51;99757.80;;;22.30
66372;BMP180;53168;51.146;17.120;2023-07-20T08:10:38;99762.40;;;22.10
66372;BMP180;53168;51.146;17.120;2023-07-20T08:13:27;99764.60;;;21.90
66372;BMP180;53168;51.146;17.120;2023-07-20T08:19:30;99769.80;;;21.70
66372;BMP180;53168;51.146;17.120;2023-07-20T08:22:27;99780.20;;;21.50
66372;BMP180;53168;51.146;17.120;2023-07-20T08:25:32;99770.20;;;21.24
66372;BMP180;53168;51.146;17.120;2023-07-20T08:28:30;99763.80;;;21.28
66372;BMP180;53168;51.146;17.120;2023-07-20T08:35:49;99752.20;;;21.98
66372;BMP180;53168;51.146;17.120;2023-07-20T08:44:46;99758.00;;;23.30
66372;BMP180;53168;51.146;17.120;2023-07-20T08:47:38;99763.40;;;23.20
66372;BMP180;53168;51.146;17.120;2023-07-20T08:50:39;99770.20;;;23.04
66372;BMP180;53168;51.146;17.120;2023-07-20T08:54:13;99763.00;;;22.90
66372;BMP180;53168;51.146;17.120;2023-07-20T08:57:19;99761.60;;;22.64
66372;BMP180;53168;51.146;17.120;2023-07-20T09:00:46;99761.00;;;22.62
66372;BMP180;53168;51.146;17.120;2023-07-20T09:03:52;99765.80;;;22.70
66372;BMP180;53168;51.146;17.120;2023-07-20T09:06:32;99757.80;;;22.86
66372;BMP180;53168;51.146;17.120;2023-07-20T09:09:32;99763.40;;;23.02
66372;BMP180;53168;51.146;17.120;2023-07-20T09:12:19;99764.80;;;23.20
66372;BMP180;53168;51.146;17.120;2023-07-20T09:18:59;99772.00;;;22.80
66372;BMP180;53168;51.146;17.120;2023-07-20T09:21:58;99773.20;;;22.38
66372;BMP180;53168;51.146;17.120;2023-07-20T09:24:39;99781.00;;;22.20
66372;BMP180;53168;51.146;17.120;2023-07-20T09:27:53;99779.20;;;22.00
66372;BMP180;53168;51.146;17.120;2023-07-20T09:30:56;99771.40;;;21.90
66372;BMP180;53168;51.146;17.120;2023-07-20T09:38:28;99767.20;;;23.10
66372;BMP180;53168;51.146;17.120;2023-07-20T09:41:52;99755.80;;;23.36
66372;BMP180;53168;51.146;17.120;2023-07-20T09:45:24;99762.20;;;23.90
66372;BMP180;53168;51.146;17.120;2023-07-20T09:48:10;99765.00;;;23.80
66372;BMP180;53168;51.146;17.120;2023-07-20T09:50:52;99772.60;;;23.50
66372;BMP180;53168;51.146;17.120;2023-07-20T09:53:28;99757.80;;;23.20
66372;BMP180;53168;51.146;17.120;2023-07-20T09:56:05;99759.60;;;23.20
66372;BMP180;53168;51.146;17.120;2023-07-20T10:35:13;99734.00;;;25.46
66372;BMP180;53168;51.146;17.120;2023-07-20T10:49:22;99728.20;;;26.56
66372;BMP180;53168;51.146;17.120;2023-07-20T10:55:26;99714.20;;;27.00
66372;BMP180;53168;51.146;17.120;2023-07-20T10:58:20;99710.00;;;27.08
66372;BMP180;53168;51.146;17.120;2023-07-20T11:01:05;99708.60;;;26.90
66372;BMP180;53168;51.146;17.120;2023-07-20T11:03:56;99717.20;;;26.92
66372;BMP180;53168;51.146;17.120;2023-07-20T11:06:56;99715.20;;;27.00
66372;BMP180;53168;51.146;17.120;2023-07-20T11:09:41;99707.40;;;27.08
66372;BMP180;53168;51.146;17.120;2023-07-20T11:12:28;99708.40;;;27.40
66372;BMP180;53168;51.146;17.120;2023-07-20T11:15:11;99708.60;;;27.52
66372;BMP180;53168;51.146;17.120;2023-07-20T11:18:12;99701.60;;;27.76
66372;BMP180;53168;51.146;17.120;2023-07-20T11:20:54;99703.00;;;28.02
66372;BMP180;53168;51.146;17.120;2023-07-20T11:23:30;99702.40;;;28.40
66372;BMP180;53168;51.146;17.120;2023-07-20T11:26:06;99697.00;;;28.38
66372;BMP180;53168;51.146;17.120;2023-07-20T11:28:47;99724.20;;;27.88
66372;BMP180;53168;51.146;17.120;2023-07-20T11:31:49;99736.20;;;26.84
66372;BMP180;53168;51.146;17.120;2023-07-20T11:34:31;99749.80;;;25.64
66372;BMP180;53168;51.146;17.120;2023-07-20T11:37:15;99759.80;;;24.22
66372;BMP180;53168;51.146;17.120;2023-07-20T11:39:59;99763.20;;;21.96
66372;BMP180;53168;51.146;17.120;2023-07-20T11:42:49;99773.80;;;20.38
66372;BMP180;53168;51.146;17.120;2023-07-20T11:45:35;99755.80;;;19.42
66372;BMP180;53168;51.146;17.120;2023-07-20T12:20:11;99785.80;;;22.20
66372;BMP180;53168;51.146;17.120;2023-07-20T12:23:02;99775.80;;;22.00
66372;BMP180;53168;51.146;17.120;2023-07-20T12:32:07;99738.20;;;24.34
66372;BMP180;53168;51.146;17.120;2023-07-20T12:34:45;99744.80;;;25.58
66372;BMP180;53168;51.146;17.120;2023-07-20T12:37:20;99737.00;;;26.76
66372;BMP180;53168;51.146;17.120;2023-07-20T12:39:53;99754.20;;;27.00
66372;BMP180;53168;51.146;17.120;2023-07-20T12:42:32;99735.60;;;26.82
66372;BMP180;53168;51.146;17.120;2023-07-20T12:45:33;99732.80;;;28.44
66372;BMP180;53168;51.146;17.120;2023-07-20T12:48:05;99744.00;;;29.08
66372;BMP180;53168;51.146;17.120;2023-07-20T12:50:59;99729.20;;;29.32
66372;BMP180;53168;51.146;17.120;2023-07-20T12:53:59;99763.60;;;29.82
66372;BMP180;53168;51.146;17.120;2023-07-20T12:57:54;99754.20;;;29.16
66372;BMP180;53168;51.146;17.120;2023-07-20T13:12:48;99757.80;;;29.40
66372;BMP180;53168;51.146;17.120;2023-07-20T13:15:44;99729.20;;;29.78
66372;BMP180;53168;51.146;17.120;2023-07-20T13:18:39;99737.60;;;31.32
66372;BMP180;53168;51.146;17.120;2023-07-20T13:21:31;99769.60;;;30.82
66372;BMP180;53168;51.146;17.120;2023-07-20T13:27:05;99759.40;;;29.26
66372;BMP180;53168;51.146;17.120;2023-07-20T13:29:44;99765.20;;;29.34
66372;BMP180;53168;51.146;17.120;2023-07-20T13:32:54;99762.20;;;28.70
66372;BMP180;53168;51.146;17.120;2023-07-20T13:39:52;99751.40;;;29.04
66372;BMP180;53168;51.146;17.120;2023-07-20T13:46:41;99731.00;;;32.44
66372;BMP180;53168;51.146;17.120;2023-07-20T13:49:21;99739.40;;;32.54
66372;BMP180;53168;51.146;17.120;2023-07-20T13:52:15;99738.60;;;31.92
66372;BMP180;53168;51.146;17.120;2023-07-20T13:55:34;99736.40;;;31.90
66372;BMP180;53168;51.146;17.120;2023-07-20T13:58:24;99727.60;;;31.92
66372;BMP180;53168;51.146;17.120;2023-07-20T14:01:42;99723.60;;;32.20
66372;BMP180;53168;51.146;17.120;2023-07-20T14:04:15;99727.60;;;32.76
66372;BMP180;53168;51.146;17.120;2023-07-20T14:06:46;99729.80;;;32.90
66372;BMP180;53168;51.146;17.120;2023-07-20T14:09:30;99728.60;;;32.90
66372;BMP180;53168;51.146;17.120;2023-07-20T14:12:27;99722.20;;;33.06
66372;BMP180;53168;51.146;17.120;2023-07-20T14:15:05;99734.60;;;33.56
66372;BMP180;53168;51.146;17.120;2023-07-20T14:17:47;99725.40;;;33.56
66372;BMP180;53168;51.146;17.120;2023-07-20T14:20:24;99720.20;;;33.50
66372;BMP180;53168;51.146;17.120;2023-07-20T14:22:54;99724.00;;;32.80
66372;BMP180;53168;51.146;17.120;2023-07-20T14:25:24;99721.80;;;33.08
66372;BMP180;53168;51.146;17.120;2023-07-20T14:27:54;99722.20;;;33.30
66372;BMP180;53168;51.146;17.120;2023-07-20T14:30:25;99715.80;;;33.50
66372;BMP180;53168;51.146;17.120;2023-07-20T14:32:55;99713.60;;;33.90
66372;BMP180;53168;51.146;17.120;2023-07-20T14:35:25;99700.40;;;34.20
66372;BMP180;53168;51.146;17.120;2023-07-20T14:40:55;99705.60;;;34.20
66372;BMP180;53168;51.146;17.120;2023-07-20T14:43:25;99702.80;;;34.00
66372;BMP180;53168;51.146;17.120;2023-07-20T14:45:56;99706.60;;;34.00
66372;BMP180;53168;51.146;17.120;2023-07-20T14:48:26;99700.00;;;34.32
66372;BMP180;53168;51.146;17.120;2023-07-20T14:50:56;99736.00;;;34.06
66372;BMP180;53168;51.146;17.120;2023-07-20T14:53:39;99746.60;;;32.52
66372;BMP180;53168;51.146;17.120;2023-07-20T14:56:23;99745.80;;;31.04
66372;BMP180;53168;51.146;17.120;2023-07-20T14:58:58;99750.40;;;30.10
66372;BMP180;53168;51.146;17.120;2023-07-20T15:01:37;99749.00;;;29.16
66372;BMP180;53168;51.146;17.120;2023-07-20T15:04:10;99750.20;;;28.26
66372;BMP180;53168;51.146;17.120;2023-07-20T15:06:40;99745.80;;;27.76
66372;BMP180;53168;51.146;17.120;2023-07-20T15:09:21;99755.00;;;27.32
66372;BMP180;53168;51.146;17.120;2023-07-20T15:11:52;99755.60;;;26.90
66372;BMP180;53168;51.146;17.120;2023-07-20T15:37:01;99706.40;;;29.56
66372;BMP180;53168;51.146;17.120;2023-07-20T15:39:36;99702.40;;;31.48
66372;BMP180;53168;51.146;17.120;2023-07-20T15:42:13;99749.40;;;30.58
66372;BMP180;53168;51.146;17.120;2023-07-20T15:44:48;99690.40;;;30.70
66372;BMP180;53168;51.146;17.120;2023-07-20T15:47:23;99695.80;;;31.58
66372;BMP180;53168;51.146;17.120;2023-07-20T15:50:00;99698.40;;;32.18
66372;BMP180;53168;51.146;17.120;2023-07-20T15:52:37;99693.80;;;32.54
66372;BMP180;53168;51.146;17.120;2023-07-20T15:55:14;99690.00;;;33.00
66372;BMP180;53168;51.146;17.120;2023-07-20T15:57:50;99684.20;;;33.10
66372;BMP180;53168;51.146;17.120;2023-07-20T16:00:26;99687.00;;;33.24
66372;BMP180;53168;51.146;17.120;2023-07-20T16:10:10;99676.80;;;34.00
66372;BMP180;53168;51.146;17.120;2023-07-20T16:12:50;99685.60;;;33.90
66372;BMP180;53168;51.146;17.120;2023-07-20T16:15:25;99677.00;;;34.00
66372;BMP180;53168;51.146;17.120;2023-07-20T16:18:07;99734.60;;;34.28
66372;BMP180;53168;51.146;17.120;2023-07-20T16:20:42;99732.40;;;32.88
66372;BMP180;53168;51.146;17.120;2023-07-20T16:23:22;99675.00;;;31.70
66372;BMP180;53168;51.146;17.120;2023-07-20T16:26:00;99738.80;;;32.10
66372;BMP180;53168;51.146;17.120;2023-07-20T16:28:37;99760.40;;;31.04
66372;BMP180;53168;51.146;17.120;2023-07-20T16:31:17;99768.40;;;29.94
66372;BMP180;53168;51.146;17.120;2023-07-20T16:34:09;99770.60;;;28.66
66372;BMP180;53168;51.146;17.120;2023-07-20T16:36:51;99760.20;;;27.62
66372;BMP180;53168;51.146;17.120;2023-07-20T16:39:48;99746.40;;;27.10
66372;BMP180;53168;51.146;17.120;2023-07-20T16:42:52;99724.80;;;27.48
66372;BMP180;53168;51.146;17.120;2023-07-20T16:49:17;99754.00;;;26.50
66372;BMP180;53168;51.146;17.120;2023-07-20T16:51:52;99759.00;;;26.00
66372;BMP180;53168;51.146;17.120;2023-07-20T16:54:33;99759.60;;;25.66
66372;BMP180;53168;51.146;17.120;2023-07-20T16:57:11;99763.20;;;25.30
66372;BMP180;53168;51.146;17.120;2023-07-20T16:59:49;99763.20;;;24.92
66372;BMP180;53168;51.146;17.120;2023-07-20T17:02:27;99770.60;;;24.60
66372;BMP180;53168;51.146;17.120;2023-07-20T17:05:03;99769.00;;;24.40
66372;BMP180;53168;51.146;17.120;2023-07-20T17:46:01;99767.00;;;23.24
66372;BMP180;53168;51.146;17.120;2023-07-20T17:48:35;99769.60;;;23.10
66372;BMP180;53168;51.146;17.120;2023-07-20T17:51:28;99770.00;;;23.00
66372;BMP180;53168;51.146;17.120;2023-07-20T17:53:59;99775.60;;;22.90
66372;BMP180;53168;51.146;17.120;2023-07-20T17:56:30;99774.40;;;22.80
66372;BMP180;53168;51.146;17.120;2023-07-20T17:59:02;99774.20;;;22.78
66372;BMP180;53168;51.146;17.120;2023-07-20T18:01:33;99775.80;;;22.70
66372;BMP180;53168;51.146;17.120;2023-07-20T18:04:03;99769.80;;;22.70
66372;BMP180;53168;51.146;17.120;2023-07-20T18:06:38;99769.80;;;22.70
66372;BMP180;53168;51.146;17.120;2023-07-20T18:09:09;99775.20;;;22.70
66372;BMP180;53168;51.146;17.120;2023-07-20T18:11:40;99774.40;;;22.60
66372;BMP180;53168;51.146;17.120;2023-07-20T18:14:14;99778.40;;;22.60
66372;BMP180;53168;51.146;17.120;2023-07-20T18:16:45;99778.00;;;22.52
66372;BMP180;53168;51.146;17.120;2023-07-20T18:19:26;99775.20;;;22.50
66372;BMP180;53168;51.146;17.120;2023-07-20T18:21:57;99784.40;;;22.50
66372;BMP180;53168;51.146;17.120;2023-07-20T19:37:34;99865.00;;;20.74
66372;BMP180;53168;51.146;17.120;2023-07-20T19:40:08;99869.80;;;20.60
66372;BMP180;53168;51.146;17.120;2023-07-20T19:42:38;99866.60;;;20.46
66372;BMP180;53168;51.146;17.120;2023-07-20T19:45:10;99875.60;;;20.30
66372;BMP180;53168;51.146;17.120;2023-07-20T19:47:39;99877.40;;;20.20
66372;BMP180;53168;51.146;17.120;2023-07-20T19:50:12;99879.60;;;20.10
66372;BMP180;53168;51.146;17.120;2023-07-20T19:52:42;99889.60;;;20.00
66372;BMP180;53168;51.146;17.120;2023-07-20T19:55:32;99888.60;;;20.00
66372;BMP180;53168;51.146;17.120;2023-07-20T19:58:02;99887.80;;;20.00
66372;BMP180;53168;51.146;17.120;2023-07-20T20:00:32;99885.00;;;19.90
66372;BMP180;53168;51.146;17.120;2023-07-20T20:03:04;99885.40;;;19.90
66372;BMP180;53168;51.146;17.120;2023-07-20T20:05:37;99889.00;;;19.80
66372;BMP180;53168;51.146;17.120;2023-07-20T20:08:08;99893.20;;;19.72
66372;BMP180;53168;51.146;17.120;2023-07-20T20:10:38;99890.80;;;19.70
66372;BMP180;53168;51.146;17.120;2023-07-20T20:13:11;99891.80;;;19.70
66372;BMP180;53168;51.146;17.120;2023-07-20T20:15:44;99892.60;;;19.70
66372;BMP180;53168;51.146;17.120;2023-07-20T20:18:14;99890.20;;;19.66
66372;BMP180;53168;51.146;17.120;2023-07-20T20:20:46;99888.60;;;19.60
66372;BMP180;53168;51.146;17.120;2023-07-20T20:23:20;99894.60;;;19.54
66372;BMP180;53168;51.146;17.120;2023-07-20T20:25:50;99894.80;;;19.50
66372;BMP180;53168;51.146;17.120;2023-07-20T20:28:20;99892.00;;;19.40
66372;BMP180;53168;51.146;17.120;2023-07-20T20:30:53;99887.40;;;19.30
66372;BMP180;53168;51.146;17.120;2023-07-20T20:33:24;99884.60;;;19.20
66372;BMP180;53168;51.146;17.120;2023-07-20T20:35:55;99885.40;;;19.10
66372;BMP180;53168;51.146;17.120;2023-07-20T20:38:29;99884.60;;;19.00
66372;BMP180;53168;51.146;17.120;2023-07-20T20:41:00;99884.60;;;18.92
66372;BMP180;53168;51.146;17.120;2023-07-20T20:43:31;99884.40;;;18.90